sensor_id;sensor_type;location;lat;lon;timestamp;P1;durP1;ratioP1;P2;durP2;ratioP2
51214;SDS011;63849;47.546;19.254;2024-01-30T00:01:26;31.80;;;19.85;;
51214;SDS011;63849;47.546;19.254;2024-01-30T00:03:51;36.65;;;21.13;;
51214;SDS011;63849;47.546;19.254;2024-01-30T00:06:20;37.72;;;22.33;;
51214;SDS011;63849;47.546;19.254;2024-01-30T00:08:46;40.60;;;22.60;;
51214;SDS011;63849;47.546;19.254;2024-01-30T00:11:14;47.47;;;25.20;;
51214;SDS011;63849;47.546;19.254;2024-01-30T00:13:40;44.17;;;24.20;;
51214;SDS011;63849;47.546;19.254;2024-01-30T00:16:06;49.33;;;26.88;;
51214;SDS011;63849;47.546;19.254;2024-01-30T00:18:33;47.17;;;26.60;;
51214;SDS011;63849;47.546;19.254;2024-01-30T00:20:58;48.92;;;27.42;;
51214;SDS011;63849;47.546;19.254;2024-01-30T00:23:24;50.22;;;28.58;;
51214;SDS011;63849;47.546;19.254;2024-01-30T00:25:50;54.92;;;30.50;;
51214;SDS011;63849;47.546;19.254;2024-01-30T00:28:15;54.90;;;30.85;;
51214;SDS011;63849;47.546;19.254;2024-01-30T00:30:41;55.50;;;30.17;;
51214;SDS011;63849;47.546;19.254;2024-01-30T00:33:07;64.57;;;32.28;;
51214;SDS011;63849;47.546;19.254;2024-01-30T00:35:33;64.80;;;33.05;;
51214;SDS011;63849;47.546;19.254;2024-01-30T00:37:59;59.40;;;31.67;;
51214;SDS011;63849;47.546;19.254;2024-01-30T00:40:24;56.80;;;30.63;;
51214;SDS011;63849;47.546;19.254;2024-01-30T00:42:50;56.22;;;28.58;;
51214;SDS011;63849;47.546;19.254;2024-01-30T00:45:16;46.03;;;25.35;;
51214;SDS011;63849;47.546;19.254;2024-01-30T00:47:42;54.13;;;27.40;;
51214;SDS011;63849;47.546;19.254;2024-01-30T00:50:08;51.45;;;27.70;;
51214;SDS011;63849;47.546;19.254;2024-01-30T00:52:34;53.67;;;30.35;;
51214;SDS011;63849;47.546;19.254;2024-01-30T00:55:00;58.45;;;31.42;;
51214;SDS011;63849;47.546;19.254;2024-01-30T00:57:27;54.70;;;29.98;;
51214;SDS011;63849;47.546;19.254;2024-01-30T00:59:53;52.58;;;28.45;;
51214;SDS011;63849;47.546;19.254;2024-01-30T01:02:19;58.03;;;29.98;;
51214;SDS011;63849;47.546;19.254;2024-01-30T01:04:45;46.67;;;26.63;;
51214;SDS011;63849;47.546;19.254;2024-01-30T01:07:11;53.55;;;27.35;;
51214;SDS011;63849;47.546;19.254;2024-01-30T01:09:37;53.85;;;28.25;;
51214;SDS011;63849;47.546;19.254;2024-01-30T01:12:03;48.28;;;26.15;;
51214;SDS011;63849;47.546;19.254;2024-01-30T01:14:29;51.72;;;27.33;;
51214;SDS011;63849;47.546;19.254;2024-01-30T01:16:55;55.85;;;28.15;;
51214;SDS011;63849;47.546;19.254;2024-01-30T01:19:21;47.65;;;27.48;;
51214;SDS011;63849;47.546;19.254;2024-01-30T01:21:46;43.15;;;23.90;;
51214;SDS011;63849;47.546;19.254;2024-01-30T01:24:12;47.15;;;24.52;;
51214;SDS011;63849;47.546;19.254;2024-01-30T01:26:38;39.75;;;21.23;;
51214;SDS011;63849;47.546;19.254;2024-01-30T01:29:03;38.80;;;21.10;;
51214;SDS011;63849;47.546;19.254;2024-01-30T01:34:08;35.58;;;20.77;;
51214;SDS011;63849;47.546;19.254;2024-01-30T01:36:38;36.00;;;21.17;;
51214;SDS011;63849;47.546;19.254;2024-01-30T01:39:04;36.33;;;20.95;;
51214;SDS011;63849;47.546;19.254;2024-01-30T01:41:30;32.00;;;20.27;;
51214;SDS011;63849;47.546;19.254;2024-01-30T01:43:59;34.45;;;21.17;;
51214;SDS011;63849;47.546;19.254;2024-01-30T01:46:30;32.80;;;21.00;;
51214;SDS011;63849;47.546;19.254;2024-01-30T01:48:57;32.83;;;21.53;;
51214;SDS011;63849;47.546;19.254;2024-01-30T01:51:25;36.13;;;21.17;;
51214;SDS011;63849;47.546;19.254;2024-01-30T01:53:53;32.10;;;19.27;;
51214;SDS011;63849;47.546;19.254;2024-01-30T01:56:21;33.80;;;20.02;;
51214;SDS011;63849;47.546;19.254;2024-01-30T01:58:51;29.67;;;18.10;;
51214;SDS011;63849;47.546;19.254;2024-01-30T02:01:20;31.73;;;18.85;;
51214;SDS011;63849;47.546;19.254;2024-01-30T02:03:46;29.10;;;18.13;;
51214;SDS011;63849;47.546;19.254;2024-01-30T02:06:13;28.08;;;17.92;;
51214;SDS011;63849;47.546;19.254;2024-01-30T02:08:39;32.20;;;19.45;;
51214;SDS011;63849;47.546;19.254;2024-01-30T02:11:06;29.08;;;18.23;;
51214;SDS011;63849;47.546;19.254;2024-01-30T02:13:31;30.85;;;17.83;;
51214;SDS011;63849;47.546;19.254;2024-01-30T02:15:57;30.40;;;18.10;;
51214;SDS011;63849;47.546;19.254;2024-01-30T02:18:23;30.05;;;18.27;;
51214;SDS011;63849;47.546;19.254;2024-01-30T02:20:48;29.23;;;17.10;;
51214;SDS011;63849;47.546;19.254;2024-01-30T02:23:15;28.23;;;16.10;;
51214;SDS011;63849;47.546;19.254;2024-01-30T02:25:41;26.23;;;15.80;;
51214;SDS011;63849;47.546;19.254;2024-01-30T02:28:12;26.92;;;16.95;;
51214;SDS011;63849;47.546;19.254;2024-01-30T02:30:39;27.63;;;16.23;;
51214;SDS011;63849;47.546;19.254;2024-01-30T02:33:05;27.17;;;16.25;;
51214;SDS011;63849;47.546;19.254;2024-01-30T02:35:31;28.20;;;16.40;;
51214;SDS011;63849;47.546;19.254;2024-01-30T02:37:57;31.02;;;18.15;;
51214;SDS011;63849;47.546;19.254;2024-01-30T02:40:22;26.85;;;16.38;;
51214;SDS011;63849;47.546;19.254;2024-01-30T02:42:48;26.80;;;16.85;;
51214;SDS011;63849;47.546;19.254;2024-01-30T02:45:14;32.22;;;19.42;;
51214;SDS011;63849;47.546;19.254;2024-01-30T02:47:40;36.97;;;20.50;;
51214;SDS011;63849;47.546;19.254;2024-01-30T02:50:06;33.13;;;19.63;;
51214;SDS011;63849;47.546;19.254;2024-01-30T02:52:31;32.55;;;19.15;;
51214;SDS011;63849;47.546;19.254;2024-01-30T02:54:57;32.42;;;19.23;;
51214;SDS011;63849;47.546;19.254;2024-01-30T02:57:23;31.35;;;18.67;;
51214;SDS011;63849;47.546;19.254;2024-01-30T02:59:49;27.88;;;16.98;;
51214;SDS011;63849;47.546;19.254;2024-01-30T03:02:14;29.42;;;18.42;;
51214;SDS011;63849;47.546;19.254;2024-01-30T03:04:40;26.58;;;16.73;;
51214;SDS011;63849;47.546;19.254;2024-01-30T03:07:06;26.15;;;15.82;;
51214;SDS011;63849;47.546;19.254;2024-01-30T03:09:32;27.00;;;16.27;;
51214;SDS011;63849;47.546;19.254;2024-01-30T03:11:58;30.13;;;17.33;;
51214;SDS011;63849;47.546;19.254;2024-01-30T03:14:24;25.10;;;15.43;;
51214;SDS011;63849;47.546;19.254;2024-01-30T03:16:49;26.02;;;15.70;;
51214;SDS011;63849;47.546;19.254;2024-01-30T03:19:15;27.55;;;15.00;;
51214;SDS011;63849;47.546;19.254;2024-01-30T03:21:41;24.88;;;15.15;;
51214;SDS011;63849;47.546;19.254;2024-01-30T03:24:06;22.92;;;14.55;;
51214;SDS011;63849;47.546;19.254;2024-01-30T03:26:32;25.13;;;14.93;;
51214;SDS011;63849;47.546;19.254;2024-01-30T03:28:58;26.35;;;15.73;;
51214;SDS011;63849;47.546;19.254;2024-01-30T03:31:23;28.20;;;16.25;;
51214;SDS011;63849;47.546;19.254;2024-01-30T03:33:49;24.88;;;15.73;;
51214;SDS011;63849;47.546;19.254;2024-01-30T03:36:15;24.00;;;15.07;;
51214;SDS011;63849;47.546;19.254;2024-01-30T03:38:41;21.90;;;15.00;;
51214;SDS011;63849;47.546;19.254;2024-01-30T03:41:09;25.77;;;15.50;;
51214;SDS011;63849;47.546;19.254;2024-01-30T03:43:35;22.70;;;14.77;;
51214;SDS011;63849;47.546;19.254;2024-01-30T03:46:01;22.70;;;14.70;;
51214;SDS011;63849;47.546;19.254;2024-01-30T03:48:28;24.50;;;15.15;;
51214;SDS011;63849;47.546;19.254;2024-01-30T03:50:54;24.75;;;14.73;;
51214;SDS011;63849;47.546;19.254;2024-01-30T03:53:20;26.17;;;14.68;;
51214;SDS011;63849;47.546;19.254;2024-01-30T03:55:46;22.58;;;14.43;;
51214;SDS011;63849;47.546;19.254;2024-01-30T03:58:11;23.60;;;14.23;;
51214;SDS011;63849;47.546;19.254;2024-01-30T04:00:37;22.13;;;13.75;;
51214;SDS011;63849;47.546;19.254;2024-01-30T04:03:03;23.10;;;13.95;;
51214;SDS011;63849;47.546;19.254;2024-01-30T04:05:28;26.02;;;14.85;;
51214;SDS011;63849;47.546;19.254;2024-01-30T04:07:54;24.50;;;13.48;;
51214;SDS011;63849;47.546;19.254;2024-01-30T04:10:20;23.98;;;13.32;;
51214;SDS011;63849;47.546;19.254;2024-01-30T04:12:45;21.55;;;12.65;;
51214;SDS011;63849;47.546;19.254;2024-01-30T04:15:11;23.58;;;13.75;;
51214;SDS011;63849;47.546;19.254;2024-01-30T04:17:38;23.42;;;13.57;;
51214;SDS011;63849;47.546;19.254;2024-01-30T04:20:04;24.80;;;14.38;;
51214;SDS011;63849;47.546;19.254;2024-01-30T04:22:31;22.73;;;14.25;;
51214;SDS011;63849;47.546;19.254;2024-01-30T04:24:56;27.17;;;15.00;;
51214;SDS011;63849;47.546;19.254;2024-01-30T04:27:22;27.40;;;15.85;;
51214;SDS011;63849;47.546;19.254;2024-01-30T04:29:48;27.70;;;16.92;;
51214;SDS011;63849;47.546;19.254;2024-01-30T04:32:13;26.65;;;17.25;;
51214;SDS011;63849;47.546;19.254;2024-01-30T04:34:39;30.17;;;18.00;;
51214;SDS011;63849;47.546;19.254;2024-01-30T04:37:05;28.38;;;17.42;;
51214;SDS011;63849;47.546;19.254;2024-01-30T04:39:32;35.03;;;20.23;;
51214;SDS011;63849;47.546;19.254;2024-01-30T04:41:58;28.40;;;17.83;;
51214;SDS011;63849;47.546;19.254;2024-01-30T04:44:24;25.80;;;17.05;;
51214;SDS011;63849;47.546;19.254;2024-01-30T04:46:50;32.05;;;17.98;;
51214;SDS011;63849;47.546;19.254;2024-01-30T04:49:15;29.25;;;17.25;;
51214;SDS011;63849;47.546;19.254;2024-01-30T04:51:41;30.05;;;16.75;;
51214;SDS011;63849;47.546;19.254;2024-01-30T04:54:07;29.15;;;16.67;;
51214;SDS011;63849;47.546;19.254;2024-01-30T04:56:32;28.55;;;16.58;;
51214;SDS011;63849;47.546;19.254;2024-01-30T04:58:59;28.98;;;17.05;;
51214;SDS011;63849;47.546;19.254;2024-01-30T05:01:25;28.40;;;15.98;;
51214;SDS011;63849;47.546;19.254;2024-01-30T05:03:51;28.88;;;16.27;;
51214;SDS011;63849;47.546;19.254;2024-01-30T05:06:26;27.33;;;17.48;;
51214;SDS011;63849;47.546;19.254;2024-01-30T05:08:52;27.58;;;17.35;;
51214;SDS011;63849;47.546;19.254;2024-01-30T05:11:18;29.10;;;18.13;;
51214;SDS011;63849;47.546;19.254;2024-01-30T05:13:43;30.70;;;17.52;;
51214;SDS011;63849;47.546;19.254;2024-01-30T05:16:09;26.15;;;15.73;;
51214;SDS011;63849;47.546;19.254;2024-01-30T05:18:35;28.40;;;17.17;;
51214;SDS011;63849;47.546;19.254;2024-01-30T05:21:01;31.55;;;17.20;;
51214;SDS011;63849;47.546;19.254;2024-01-30T05:23:27;26.20;;;16.02;;
51214;SDS011;63849;47.546;19.254;2024-01-30T05:25:53;26.20;;;15.70;;
51214;SDS011;63849;47.546;19.254;2024-01-30T05:28:19;29.88;;;17.67;;
51214;SDS011;63849;47.546;19.254;2024-01-30T05:30:44;25.38;;;15.40;;
51214;SDS011;63849;47.546;19.254;2024-01-30T05:33:10;27.38;;;15.65;;
51214;SDS011;63849;47.546;19.254;2024-01-30T05:35:37;27.67;;;16.48;;
51214;SDS011;63849;47.546;19.254;2024-01-30T05:38:03;32.55;;;16.88;;
51214;SDS011;63849;47.546;19.254;2024-01-30T05:40:29;30.25;;;15.38;;
51214;SDS011;63849;47.546;19.254;2024-01-30T05:42:55;28.08;;;15.10;;
51214;SDS011;63849;47.546;19.254;2024-01-30T05:45:23;25.90;;;14.80;;
51214;SDS011;63849;47.546;19.254;2024-01-30T05:47:49;25.15;;;15.70;;
51214;SDS011;63849;47.546;19.254;2024-01-30T05:50:14;26.40;;;15.52;;
51214;SDS011;63849;47.546;19.254;2024-01-30T05:52:40;23.88;;;14.55;;
51214;SDS011;63849;47.546;19.254;2024-01-30T05:55:06;28.27;;;15.93;;
51214;SDS011;63849;47.546;19.254;2024-01-30T05:57:31;27.60;;;17.65;;
51214;SDS011;63849;47.546;19.254;2024-01-30T05:59:57;27.50;;;17.48;;
51214;SDS011;63849;47.546;19.254;2024-01-30T06:02:23;28.15;;;17.95;;
51214;SDS011;63849;47.546;19.254;2024-01-30T06:04:49;28.33;;;17.25;;
51214;SDS011;63849;47.546;19.254;2024-01-30T06:07:14;32.28;;;17.80;;
51214;SDS011;63849;47.546;19.254;2024-01-30T06:09:40;34.55;;;20.23;;
51214;SDS011;63849;47.546;19.254;2024-01-30T06:12:06;51.70;;;27.67;;
51214;SDS011;63849;47.546;19.254;2024-01-30T06:14:32;48.35;;;28.05;;
51214;SDS011;63849;47.546;19.254;2024-01-30T06:16:58;40.45;;;25.00;;
51214;SDS011;63849;47.546;19.254;2024-01-30T06:19:24;41.53;;;23.38;;
51214;SDS011;63849;47.546;19.254;2024-01-30T06:21:50;31.80;;;19.95;;
51214;SDS011;63849;47.546;19.254;2024-01-30T06:24:15;36.90;;;22.77;;
51214;SDS011;63849;47.546;19.254;2024-01-30T06:26:42;37.92;;;22.35;;
51214;SDS011;63849;47.546;19.254;2024-01-30T06:29:07;38.65;;;21.90;;
51214;SDS011;63849;47.546;19.254;2024-01-30T06:31:39;40.45;;;22.27;;
51214;SDS011;63849;47.546;19.254;2024-01-30T06:34:11;37.47;;;22.20;;
51214;SDS011;63849;47.546;19.254;2024-01-30T06:36:37;34.78;;;21.65;;
51214;SDS011;63849;47.546;19.254;2024-01-30T06:39:03;39.17;;;22.00;;
51214;SDS011;63849;47.546;19.254;2024-01-30T06:41:29;37.60;;;21.08;;
51214;SDS011;63849;47.546;19.254;2024-01-30T06:43:55;40.58;;;22.42;;
51214;SDS011;63849;47.546;19.254;2024-01-30T06:46:23;40.10;;;23.45;;
51214;SDS011;63849;47.546;19.254;2024-01-30T06:48:49;36.28;;;22.25;;
51214;SDS011;63849;47.546;19.254;2024-01-30T06:51:14;44.85;;;25.02;;
51214;SDS011;63849;47.546;19.254;2024-01-30T06:53:40;39.78;;;24.60;;
51214;SDS011;63849;47.546;19.254;2024-01-30T06:56:06;44.38;;;25.70;;
51214;SDS011;63849;47.546;19.254;2024-01-30T06:58:31;41.45;;;25.50;;
51214;SDS011;63849;47.546;19.254;2024-01-30T07:00:57;42.10;;;25.85;;
51214;SDS011;63849;47.546;19.254;2024-01-30T07:03:23;39.28;;;26.20;;
51214;SDS011;63849;47.546;19.254;2024-01-30T07:05:49;41.28;;;25.42;;
51214;SDS011;63849;47.546;19.254;2024-01-30T07:08:15;44.45;;;26.95;;
51214;SDS011;63849;47.546;19.254;2024-01-30T07:10:42;46.65;;;27.73;;
51214;SDS011;63849;47.546;19.254;2024-01-30T07:13:08;48.47;;;29.58;;
51214;SDS011;63849;47.546;19.254;2024-01-30T07:15:35;45.15;;;28.38;;
51214;SDS011;63849;47.546;19.254;2024-01-30T07:18:01;51.90;;;30.23;;
51214;SDS011;63849;47.546;19.254;2024-01-30T07:20:27;46.13;;;30.80;;
51214;SDS011;63849;47.546;19.254;2024-01-30T07:22:56;51.67;;;32.00;;
51214;SDS011;63849;47.546;19.254;2024-01-30T07:25:21;48.28;;;29.35;;
51214;SDS011;63849;47.546;19.254;2024-01-30T07:27:51;50.28;;;30.67;;
51214;SDS011;63849;47.546;19.254;2024-01-30T07:30:20;48.13;;;29.38;;
51214;SDS011;63849;47.546;19.254;2024-01-30T07:32:46;48.47;;;29.65;;
51214;SDS011;63849;47.546;19.254;2024-01-30T07:35:13;44.58;;;28.30;;
51214;SDS011;63849;47.546;19.254;2024-01-30T07:37:39;41.22;;;27.70;;
51214;SDS011;63849;47.546;19.254;2024-01-30T07:40:04;42.70;;;27.13;;
51214;SDS011;63849;47.546;19.254;2024-01-30T07:42:31;42.17;;;26.02;;
51214;SDS011;63849;47.546;19.254;2024-01-30T07:44:58;41.33;;;25.23;;
51214;SDS011;63849;47.546;19.254;2024-01-30T07:47:23;38.08;;;24.08;;
51214;SDS011;63849;47.546;19.254;2024-01-30T07:49:49;34.88;;;23.52;;
51214;SDS011;63849;47.546;19.254;2024-01-30T07:52:15;37.70;;;23.60;;
51214;SDS011;63849;47.546;19.254;2024-01-30T07:54:41;35.83;;;22.15;;
51214;SDS011;63849;47.546;19.254;2024-01-30T07:57:25;37.10;;;22.02;;
51214;SDS011;63849;47.546;19.254;2024-01-30T07:59:50;36.72;;;21.65;;
51214;SDS011;63849;47.546;19.254;2024-01-30T08:02:16;33.25;;;20.63;;
51214;SDS011;63849;47.546;19.254;2024-01-30T08:04:42;33.15;;;20.92;;
51214;SDS011;63849;47.546;19.254;2024-01-30T08:07:07;36.75;;;22.05;;
51214;SDS011;63849;47.546;19.254;2024-01-30T08:09:33;31.30;;;20.45;;
51214;SDS011;63849;47.546;19.254;2024-01-30T08:11:59;35.10;;;21.33;;
51214;SDS011;63849;47.546;19.254;2024-01-30T08:14:24;32.78;;;20.40;;
51214;SDS011;63849;47.546;19.254;2024-01-30T08:16:51;34.80;;;22.70;;
51214;SDS011;63849;47.546;19.254;2024-01-30T08:19:16;31.98;;;19.73;;
51214;SDS011;63849;47.546;19.254;2024-01-30T08:21:42;32.95;;;19.85;;
51214;SDS011;63849;47.546;19.254;2024-01-30T08:24:07;33.05;;;21.02;;
51214;SDS011;63849;47.546;19.254;2024-01-30T08:26:33;36.13;;;19.77;;
51214;SDS011;63849;47.546;19.254;2024-01-30T08:29:00;33.08;;;19.70;;
51214;SDS011;63849;47.546;19.254;2024-01-30T08:31:26;28.77;;;19.20;;
51214;SDS011;63849;47.546;19.254;2024-01-30T08:33:52;28.42;;;18.02;;
51214;SDS011;63849;47.546;19.254;2024-01-30T08:36:17;24.90;;;16.98;;
51214;SDS011;63849;47.546;19.254;2024-01-30T08:38:44;28.10;;;17.40;;
51214;SDS011;63849;47.546;19.254;2024-01-30T08:41:09;28.92;;;18.02;;
51214;SDS011;63849;47.546;19.254;2024-01-30T08:43:35;28.48;;;17.85;;
51214;SDS011;63849;47.546;19.254;2024-01-30T08:46:01;28.83;;;18.50;;
51214;SDS011;63849;47.546;19.254;2024-01-30T08:48:27;31.55;;;19.63;;
51214;SDS011;63849;47.546;19.254;2024-01-30T08:50:53;29.60;;;17.63;;
51214;SDS011;63849;47.546;19.254;2024-01-30T08:53:19;30.05;;;18.60;;
51214;SDS011;63849;47.546;19.254;2024-01-30T08:55:44;30.70;;;19.77;;
51214;SDS011;63849;47.546;19.254;2024-01-30T08:58:10;26.33;;;17.50;;
51214;SDS011;63849;47.546;19.254;2024-01-30T09:00:36;28.17;;;19.20;;
51214;SDS011;63849;47.546;19.254;2024-01-30T09:03:01;32.38;;;19.63;;
51214;SDS011;63849;47.546;19.254;2024-01-30T09:05:28;33.58;;;19.38;;
51214;SDS011;63849;47.546;19.254;2024-01-30T09:07:54;30.15;;;18.67;;
51214;SDS011;63849;47.546;19.254;2024-01-30T09:10:19;27.65;;;18.60;;
51214;SDS011;63849;47.546;19.254;2024-01-30T09:12:45;25.75;;;17.73;;
51214;SDS011;63849;47.546;19.254;2024-01-30T09:15:11;31.63;;;20.33;;
51214;SDS011;63849;47.546;19.254;2024-01-30T09:17:37;32.97;;;20.85;;
51214;SDS011;63849;47.546;19.254;2024-01-30T09:20:03;32.65;;;22.23;;
51214;SDS011;63849;47.546;19.254;2024-01-30T09:22:29;32.28;;;20.50;;
51214;SDS011;63849;47.546;19.254;2024-01-30T09:24:55;34.40;;;20.83;;
51214;SDS011;63849;47.546;19.254;2024-01-30T09:27:20;32.17;;;21.27;;
51214;SDS011;63849;47.546;19.254;2024-01-30T09:29:46;32.25;;;22.10;;
51214;SDS011;63849;47.546;19.254;2024-01-30T09:32:12;37.53;;;22.75;;
51214;SDS011;63849;47.546;19.254;2024-01-30T09:34:37;33.28;;;21.77;;
51214;SDS011;63849;47.546;19.254;2024-01-30T09:37:04;34.53;;;21.70;;
51214;SDS011;63849;47.546;19.254;2024-01-30T09:39:30;33.80;;;21.90;;
51214;SDS011;63849;47.546;19.254;2024-01-30T09:42:02;34.83;;;22.80;;
51214;SDS011;63849;47.546;19.254;2024-01-30T09:44:36;37.53;;;23.42;;
51214;SDS011;63849;47.546;19.254;2024-01-30T09:47:03;34.28;;;22.17;;
51214;SDS011;63849;47.546;19.254;2024-01-30T09:49:34;37.13;;;23.88;;
51214;SDS011;63849;47.546;19.254;2024-01-30T09:52:02;42.70;;;24.30;;
51214;SDS011;63849;47.546;19.254;2024-01-30T09:54:31;36.42;;;24.35;;
51214;SDS011;63849;47.546;19.254;2024-01-30T09:56:58;38.30;;;24.23;;
51214;SDS011;63849;47.546;19.254;2024-01-30T09:59:24;36.50;;;24.02;;
51214;SDS011;63849;47.546;19.254;2024-01-30T10:01:50;35.47;;;24.45;;
51214;SDS011;63849;47.546;19.254;2024-01-30T10:04:16;37.28;;;24.17;;
51214;SDS011;63849;47.546;19.254;2024-01-30T10:06:42;37.17;;;23.92;;
51214;SDS011;63849;47.546;19.254;2024-01-30T10:09:08;37.30;;;23.55;;
51214;SDS011;63849;47.546;19.254;2024-01-30T10:11:34;34.28;;;23.88;;
51214;SDS011;63849;47.546;19.254;2024-01-30T10:14:01;38.50;;;24.38;;
51214;SDS011;63849;47.546;19.254;2024-01-30T10:16:27;36.00;;;22.33;;
51214;SDS011;63849;47.546;19.254;2024-01-30T10:18:53;34.28;;;21.63;;
51214;SDS011;63849;47.546;19.254;2024-01-30T10:21:18;31.90;;;20.75;;
51214;SDS011;63849;47.546;19.254;2024-01-30T10:23:44;31.23;;;22.17;;
51214;SDS011;63849;47.546;19.254;2024-01-30T10:26:10;45.55;;;31.73;;
51214;SDS011;63849;47.546;19.254;2024-01-30T10:28:35;35.58;;;23.50;;
51214;SDS011;63849;47.546;19.254;2024-01-30T10:31:01;53.83;;;35.53;;
51214;SDS011;63849;47.546;19.254;2024-01-30T10:33:30;27.90;;;18.30;;
51214;SDS011;63849;47.546;19.254;2024-01-30T10:36:00;33.55;;;21.85;;
51214;SDS011;63849;47.546;19.254;2024-01-30T10:38:30;28.63;;;17.88;;
51214;SDS011;63849;47.546;19.254;2024-01-30T10:40:57;27.35;;;17.05;;
51214;SDS011;63849;47.546;19.254;2024-01-30T10:43:31;24.50;;;15.55;;
51214;SDS011;63849;47.546;19.254;2024-01-30T10:46:18;26.27;;;15.57;;
51214;SDS011;63849;47.546;19.254;2024-01-30T10:48:46;24.50;;;15.48;;
51214;SDS011;63849;47.546;19.254;2024-01-30T10:51:22;23.98;;;16.08;;
51214;SDS011;63849;47.546;19.254;2024-01-30T10:53:48;22.55;;;15.52;;
51214;SDS011;63849;47.546;19.254;2024-01-30T10:56:16;22.92;;;15.70;;
51214;SDS011;63849;47.546;19.254;2024-01-30T10:58:42;24.65;;;15.95;;
51214;SDS011;63849;47.546;19.254;2024-01-30T11:01:07;27.75;;;17.42;;
51214;SDS011;63849;47.546;19.254;2024-01-30T11:03:34;27.02;;;17.83;;
51214;SDS011;63849;47.546;19.254;2024-01-30T11:06:02;27.20;;;18.83;;
51214;SDS011;63849;47.546;19.254;2024-01-30T11:08:28;26.48;;;18.00;;
51214;SDS011;63849;47.546;19.254;2024-01-30T11:10:57;34.15;;;20.02;;
51214;SDS011;63849;47.546;19.254;2024-01-30T11:13:29;26.55;;;19.27;;
51214;SDS011;63849;47.546;19.254;2024-01-30T11:15:59;26.10;;;19.23;;
51214;SDS011;63849;47.546;19.254;2024-01-30T11:18:26;25.40;;;18.48;;
51214;SDS011;63849;47.546;19.254;2024-01-30T11:20:58;25.73;;;17.23;;
51214;SDS011;63849;47.546;19.254;2024-01-30T11:23:26;28.65;;;17.52;;
51214;SDS011;63849;47.546;19.254;2024-01-30T11:25:52;25.27;;;18.60;;
51214;SDS011;63849;47.546;19.254;2024-01-30T11:28:18;26.65;;;19.00;;
51214;SDS011;63849;47.546;19.254;2024-01-30T11:30:45;29.48;;;19.10;;
51214;SDS011;63849;47.546;19.254;2024-01-30T11:33:13;24.42;;;17.88;;
51214;SDS011;63849;47.546;19.254;2024-01-30T11:38:06;29.48;;;18.08;;
51214;SDS011;63849;47.546;19.254;2024-01-30T11:40:33;27.42;;;18.20;;
51214;SDS011;63849;47.546;19.254;2024-01-30T11:42:59;28.23;;;19.85;;
51214;SDS011;63849;47.546;19.254;2024-01-30T11:45:29;30.27;;;20.45;;
51214;SDS011;63849;47.546;19.254;2024-01-30T11:47:56;27.77;;;19.50;;
51214;SDS011;63849;47.546;19.254;2024-01-30T11:50:22;29.33;;;18.92;;
51214;SDS011;63849;47.546;19.254;2024-01-30T11:52:48;26.52;;;18.67;;
51214;SDS011;63849;47.546;19.254;2024-01-30T11:55:14;27.05;;;17.60;;
51214;SDS011;63849;47.546;19.254;2024-01-30T11:57:40;26.85;;;17.38;;
51214;SDS011;63849;47.546;19.254;2024-01-30T12:00:06;26.88;;;18.75;;
51214;SDS011;63849;47.546;19.254;2024-01-30T12:02:39;27.02;;;19.17;;
51214;SDS011;63849;47.546;19.254;2024-01-30T12:05:05;23.20;;;17.10;;
51214;SDS011;63849;47.546;19.254;2024-01-30T12:07:32;26.08;;;18.95;;
51214;SDS011;63849;47.546;19.254;2024-01-30T12:09:58;25.73;;;19.25;;
51214;SDS011;63849;47.546;19.254;2024-01-30T12:12:27;25.08;;;18.75;;
51214;SDS011;63849;47.546;19.254;2024-01-30T12:14:53;32.83;;;21.27;;
51214;SDS011;63849;47.546;19.254;2024-01-30T12:17:37;28.13;;;20.33;;
51214;SDS011;63849;47.546;19.254;2024-01-30T12:20:04;27.92;;;20.27;;
51214;SDS011;63849;47.546;19.254;2024-01-30T12:22:32;27.38;;;18.95;;
51214;SDS011;63849;47.546;19.254;2024-01-30T12:25:01;27.13;;;18.45;;
51214;SDS011;63849;47.546;19.254;2024-01-30T12:27:26;32.00;;;20.80;;
51214;SDS011;63849;47.546;19.254;2024-01-30T12:29:56;24.20;;;17.55;;
51214;SDS011;63849;47.546;19.254;2024-01-30T12:32:23;27.30;;;18.00;;
51214;SDS011;63849;47.546;19.254;2024-01-30T12:34:49;23.60;;;17.85;;
51214;SDS011;63849;47.546;19.254;2024-01-30T12:37:14;26.70;;;18.35;;
51214;SDS011;63849;47.546;19.254;2024-01-30T12:39:45;24.88;;;18.23;;
51214;SDS011;63849;47.546;19.254;2024-01-30T12:42:10;23.95;;;16.67;;
51214;SDS011;63849;47.546;19.254;2024-01-30T12:44:36;26.73;;;17.30;;
51214;SDS011;63849;47.546;19.254;2024-01-30T12:47:05;27.13;;;17.25;;
51214;SDS011;63849;47.546;19.254;2024-01-30T12:49:31;24.02;;;17.45;;
51214;SDS011;63849;47.546;19.254;2024-01-30T12:51:56;22.15;;;15.77;;
51214;SDS011;63849;47.546;19.254;2024-01-30T12:54:23;24.50;;;15.93;;
51214;SDS011;63849;47.546;19.254;2024-01-30T12:56:49;26.02;;;16.38;;
51214;SDS011;63849;47.546;19.254;2024-01-30T12:59:14;21.98;;;15.50;;
51214;SDS011;63849;47.546;19.254;2024-01-30T13:01:41;20.75;;;14.93;;
51214;SDS011;63849;47.546;19.254;2024-01-30T13:04:06;24.05;;;16.23;;
51214;SDS011;63849;47.546;19.254;2024-01-30T13:06:32;21.38;;;15.77;;
51214;SDS011;63849;47.546;19.254;2024-01-30T13:08:58;24.10;;;16.27;;
51214;SDS011;63849;47.546;19.254;2024-01-30T13:11:23;26.88;;;17.50;;
51214;SDS011;63849;47.546;19.254;2024-01-30T13:13:50;23.00;;;15.57;;
51214;SDS011;63849;47.546;19.254;2024-01-30T13:16:16;22.60;;;15.20;;
51214;SDS011;63849;47.546;19.254;2024-01-30T13:18:42;19.67;;;13.55;;
51214;SDS011;63849;47.546;19.254;2024-01-30T13:21:08;19.88;;;14.02;;
51214;SDS011;63849;47.546;19.254;2024-01-30T13:23:34;18.65;;;13.52;;
51214;SDS011;63849;47.546;19.254;2024-01-30T13:26:00;17.52;;;12.40;;
51214;SDS011;63849;47.546;19.254;2024-01-30T13:28:26;14.77;;;11.48;;
51214;SDS011;63849;47.546;19.254;2024-01-30T13:30:51;28.40;;;12.68;;
51214;SDS011;63849;47.546;19.254;2024-01-30T13:33:17;18.38;;;12.45;;
51214;SDS011;63849;47.546;19.254;2024-01-30T13:35:43;17.58;;;12.68;;
51214;SDS011;63849;47.546;19.254;2024-01-30T13:38:08;15.40;;;11.38;;
51214;SDS011;63849;47.546;19.254;2024-01-30T13:40:35;14.85;;;11.48;;
51214;SDS011;63849;47.546;19.254;2024-01-30T13:43:01;16.88;;;11.73;;
51214;SDS011;63849;47.546;19.254;2024-01-30T13:45:27;18.27;;;12.13;;
51214;SDS011;63849;47.546;19.254;2024-01-30T13:47:52;16.05;;;11.57;;
51214;SDS011;63849;47.546;19.254;2024-01-30T13:50:18;15.63;;;12.02;;
51214;SDS011;63849;47.546;19.254;2024-01-30T13:52:43;17.27;;;11.85;;
51214;SDS011;63849;47.546;19.254;2024-01-30T13:55:09;16.92;;;11.60;;
51214;SDS011;63849;47.546;19.254;2024-01-30T13:57:35;16.33;;;12.07;;
51214;SDS011;63849;47.546;19.254;2024-01-30T14:00:05;21.17;;;12.98;;
51214;SDS011;63849;47.546;19.254;2024-01-30T14:02:31;15.88;;;11.35;;
51214;SDS011;63849;47.546;19.254;2024-01-30T14:04:57;17.75;;;13.02;;
51214;SDS011;63849;47.546;19.254;2024-01-30T14:07:23;17.65;;;11.82;;
51214;SDS011;63849;47.546;19.254;2024-01-30T14:09:49;16.65;;;11.68;;